Time;durP1;ratioP1;P1;durP2;ratioP2;P2;SDS_P1;SDS_P2;PMS_P1;PMS_P2;Temp;Humidity;BMP_temperature;BMP_pressure;BME280_temperature;BME280_humidity;BME280_pressure;Samples;Min_cycle;Max_cycle;Signal;HPM_P1;HPM_P2
2021/08/21 00:00:06;;;;;;;0.93;0.90;;;;;;;;;;5046966;28;20037;-59
2021/08/21 00:02:33;;;;;;;0.90;0.90;;;;;;;;;;5046886;28;20041;-59
2021/08/21 00:04:59;;;;;;;1.20;1.10;;;;;;;;;;5046457;28;20508;-59
2021/08/21 00:07:26;;;;;;;1.40;1.17;;;;;;;;;;5052268;28;20029;-59
2021/08/21 00:09:52;;;;;;;1.38;1.10;;;;;;;;;;5066305;28;20028;-59
2021/08/21 00:12:18;;;;;;;2.28;1.40;;;;;;;;;;5066005;28;20028;-59
2021/08/21 00:14:44;;;;;;;1.50;1.30;;;;;;;;;;5066219;28;20031;-59
2021/08/21 00:17:10;;;;;;;1.30;1.20;;;;;;;;;;5051356;28;20033;-59
2021/08/21 00:19:36;;;;;;;1.10;1.00;;;;;;;;;;5046101;28;20431;-59
2021/08/21 00:22:02;;;;;;;1.40;1.30;;;;;;;;;;5046952;28;20415;-59
2021/08/21 00:24:28;;;;;;;1.20;1.10;;;;;;;;;;5045797;28;20601;-59
2021/08/21 00:26:55;;;;;;;1.48;1.38;;;;;;;;;;5057787;28;20792;-59
2021/08/21 00:29:21;;;;;;;1.27;1.17;;;;;;;;;;5065886;28;20123;-59
2021/08/21 00:31:47;;;;;;;1.40;1.23;;;;;;;;;;5066164;28;20056;-59
2021/08/21 00:34:13;;;;;;;1.27;1.13;;;;;;;;;;5066113;28;20016;-59
2021/08/21 00:36:40;;;;;;;1.60;1.50;;;;;;;;;;5055354;28;20049;-59
2021/08/21 00:39:06;;;;;;;1.35;1.25;;;;;;;;;;5045946;28;20064;-59
2021/08/21 00:41:33;;;;;;;1.58;1.25;;;;;;;;;;5048261;28;20029;-59
2021/08/21 00:43:59;;;;;;;1.30;1.20;;;;;;;;;;5049722;28;20029;-59
2021/08/21 00:46:25;;;;;;;1.67;1.40;;;;;;;;;;5054118;28;20416;-59
2021/08/21 00:48:51;;;;;;;1.40;1.30;;;;;;;;;;5069926;28;20422;-59
2021/08/21 00:51:18;;;;;;;1.83;1.25;;;;;;;;;;5069677;28;20670;-59
2021/08/21 00:53:44;;;;;;;1.92;1.33;;;;;;;;;;5069725;28;20142;-59
2021/08/21 00:56:11;;;;;;;1.48;1.38;;;;;;;;;;5068443;28;20033;-59
2021/08/21 00:58:37;;;;;;;1.42;1.33;;;;;;;;;;5068059;28;20066;-59
2021/08/21 01:01:03;;;;;;;1.33;1.23;;;;;;;;;;5068764;28;20518;-59
2021/08/21 01:03:29;;;;;;;1.48;1.20;;;;;;;;;;5066797;28;20040;-59
2021/08/21 01:05:57;;;;;;;1.80;1.42;;;;;;;;;;5068080;28;20028;-59
2021/08/21 01:08:24;;;;;;;2.08;1.52;;;;;;;;;;5067653;28;20055;-59
2021/08/21 01:10:51;;;;;;;1.50;1.40;;;;;;;;;;5068284;28;20032;-59
2021/08/21 01:13:17;;;;;;;1.63;1.50;;;;;;;;;;5067721;28;20072;-59
2021/08/21 01:15:43;;;;;;;1.92;1.40;;;;;;;;;;5068339;28;20637;-59
2021/08/21 01:18:10;;;;;;;2.40;1.60;;;;;;;;;;5068979;28;20024;-59
2021/08/21 01:20:36;;;;;;;1.10;1.00;;;;;;;;;;5069000;28;20037;-59
2021/08/21 01:23:03;;;;;;;1.42;1.33;;;;;;;;;;5069769;28;20021;-59
2021/08/21 01:25:30;;;;;;;1.52;1.30;;;;;;;;;;5050885;28;20025;-59
2021/08/21 01:27:56;;;;;;;1.35;1.20;;;;;;;;;;5049444;28;20031;-59
2021/08/21 01:30:22;;;;;;;1.35;1.25;;;;;;;;;;5048701;28;20479;-59
2021/08/21 01:32:48;;;;;;;1.77;1.40;;;;;;;;;;5048707;28;20079;-59
2021/08/21 01:35:17;;;;;;;1.48;1.20;;;;;;;;;;5062859;28;20036;-59
2021/08/21 01:37:43;;;;;;;1.77;1.40;;;;;;;;;;5068895;28;20089;-59
2021/08/21 01:40:09;;;;;;;1.30;1.10;;;;;;;;;;5055461;28;20229;-59
2021/08/21 01:42:37;;;;;;;1.98;1.58;;;;;;;;;;5048891;28;20047;-59
2021/08/21 01:45:08;;;;;;;1.38;1.27;;;;;;;;;;5061183;28;20039;-59
2021/08/21 01:47:34;;;;;;;1.40;1.30;;;;;;;;;;5069058;28;20675;-59
2021/08/21 01:50:02;;;;;;;1.60;1.50;;;;;;;;;;5068907;28;20028;-59
2021/08/21 01:52:28;;;;;;;1.50;1.40;;;;;;;;;;5068040;28;20024;-59
2021/08/21 01:54:54;;;;;;;1.85;1.30;;;;;;;;;;5067335;28;20028;-59
2021/08/21 01:57:21;;;;;;;1.65;1.50;;;;;;;;;;5068281;28;20052;-59
2021/08/21 01:59:48;;;;;;;1.58;1.45;;;;;;;;;;5068357;28;20454;-59
2021/08/21 02:02:16;;;;;;;1.42;1.33;;;;;;;;;;5067056;28;20024;-59
2021/08/21 02:04:42;;;;;;;1.80;1.65;;;;;;;;;;5054905;28;20032;-59
2021/08/21 02:07:08;;;;;;;1.50;1.40;;;;;;;;;;5048491;28;20404;-59
2021/08/21 02:09:34;;;;;;;1.52;1.42;;;;;;;;;;5048646;28;20529;-59
2021/08/21 02:12:01;;;;;;;1.50;1.40;;;;;;;;;;5053387;28;20028;-59
2021/08/21 02:14:28;;;;;;;1.38;1.27;;;;;;;;;;5056833;28;20029;-59
2021/08/21 02:16:55;;;;;;;1.60;1.40;;;;;;;;;;5047982;28;20017;-59
2021/08/21 02:19:21;;;;;;;2.20;1.90;;;;;;;;;;5048019;28;20033;-59
2021/08/21 02:21:48;;;;;;;1.98;1.52;;;;;;;;;;5051770;28;20438;-59
2021/08/21 02:24:15;;;;;;;1.70;1.60;;;;;;;;;;5059022;28;20040;-59
2021/08/21 02:26:43;;;;;;;2.17;1.75;;;;;;;;;;5048036;28;20017;-59
2021/08/21 02:29:13;;;;;;;1.50;1.40;;;;;;;;;;5047799;28;20025;-59
2021/08/21 02:31:39;;;;;;;1.55;1.40;;;;;;;;;;5047566;28;20021;-59
2021/08/21 02:34:06;;;;;;;1.23;1.10;;;;;;;;;;5047632;28;20039;-59
2021/08/21 02:36:32;;;;;;;1.10;1.00;;;;;;;;;;5048122;28;20163;-59
2021/08/21 02:38:58;;;;;;;2.63;1.75;;;;;;;;;;5047936;28;20111;-59
2021/08/21 02:41:24;;;;;;;1.40;1.23;;;;;;;;;;5047525;28;20059;-59
2021/08/21 02:43:50;;;;;;;2.08;1.50;;;;;;;;;;5050809;28;20030;-59
2021/08/21 02:46:17;;;;;;;1.60;1.40;;;;;;;;;;5067028;28;20032;-59
2021/08/21 02:48:43;;;;;;;2.20;1.67;;;;;;;;;;5067608;28;20025;-59
2021/08/21 02:51:09;;;;;;;2.33;1.70;;;;;;;;;;5067556;28;20370;-59
2021/08/21 02:53:35;;;;;;;1.40;1.20;;;;;;;;;;5064742;28;20029;-59
2021/08/21 02:56:01;;;;;;;1.73;1.60;;;;;;;;;;5048403;28;20058;-59
2021/08/21 02:58:27;;;;;;;1.83;1.50;;;;;;;;;;5047049;28;20036;-59
2021/08/21 03:00:54;;;;;;;2.00;1.52;;;;;;;;;;5047170;28;20021;-59
2021/08/21 03:03:21;;;;;;;2.58;1.73;;;;;;;;;;5046672;28;20113;-59
2021/08/21 03:05:47;;;;;;;2.15;1.50;;;;;;;;;;5045279;28;20029;-59
2021/08/21 03:08:14;;;;;;;1.42;1.33;;;;;;;;;;5045970;28;20028;-59
2021/08/21 03:10:41;;;;;;;1.85;1.50;;;;;;;;;;5044932;28;20329;-60
2021/08/21 03:13:08;;;;;;;1.50;1.40;;;;;;;;;;5045994;28;20063;-59
2021/08/21 03:15:35;;;;;;;1.65;1.55;;;;;;;;;;5047904;28;20029;-59
2021/08/21 03:18:03;;;;;;;1.73;1.42;;;;;;;;;;5066085;28;20025;-59
2021/08/21 03:20:29;;;;;;;1.63;1.52;;;;;;;;;;5065306;28;20048;-59
2021/08/21 03:22:55;;;;;;;1.50;1.30;;;;;;;;;;5063972;28;20032;-59
2021/08/21 03:25:22;;;;;;;1.50;1.40;;;;;;;;;;5065228;28;20449;-59
2021/08/21 03:27:48;;;;;;;1.40;1.30;;;;;;;;;;5065367;28;20089;-59
2021/08/21 03:30:14;;;;;;;1.45;1.35;;;;;;;;;;5065036;28;20388;-59
2021/08/21 03:32:42;;;;;;;1.80;1.40;;;;;;;;;;5060952;28;20032;-59
2021/08/21 03:35:08;;;;;;;1.58;1.48;;;;;;;;;;5045429;28;20025;-59
2021/08/21 03:37:34;;;;;;;1.60;1.50;;;;;;;;;;5045783;28;20056;-59
2021/08/21 03:40:00;;;;;;;1.42;1.30;;;;;;;;;;5045800;28;20033;-59
2021/08/21 03:42:26;;;;;;;2.00;1.60;;;;;;;;;;5044739;28;20125;-59
2021/08/21 03:44:52;;;;;;;1.58;1.40;;;;;;;;;;5044700;28;20028;-59
2021/08/21 03:47:18;;;;;;;1.73;1.42;;;;;;;;;;5059740;28;20455;-59
2021/08/21 03:49:46;;;;;;;1.95;1.67;;;;;;;;;;5065259;28;20039;-59
2021/08/21 03:52:13;;;;;;;1.52;1.20;;;;;;;;;;5057787;28;20082;-59
2021/08/21 03:54:39;;;;;;;1.75;1.60;;;;;;;;;;5063795;28;20029;-59
2021/08/21 03:57:05;;;;;;;1.58;1.48;;;;;;;;;;5065348;28;20097;-59
2021/08/21 03:59:32;;;;;;;1.80;1.60;;;;;;;;;;5065399;28;20581;-59
2021/08/21 04:01:58;;;;;;;2.05;1.55;;;;;;;;;;5064847;28;20029;-59
2021/08/21 04:04:24;;;;;;;2.42;1.60;;;;;;;;;;5047481;28;20037;-59
2021/08/21 04:06:51;;;;;;;1.55;1.38;;;;;;;;;;5045035;28;20035;-60
2021/08/21 04:09:17;;;;;;;1.60;1.50;;;;;;;;;;5044394;28;20029;-59
2021/08/21 04:11:44;;;;;;;1.40;1.23;;;;;;;;;;5045017;28;20025;-59
2021/08/21 04:14:10;;;;;;;1.50;1.40;;;;;;;;;;5057520;28;20032;-59
2021/08/21 04:16:36;;;;;;;1.73;1.40;;;;;;;;;;5068266;28;20037;-59
2021/08/21 04:19:02;;;;;;;1.50;1.40;;;;;;;;;;5069730;28;20024;-59
2021/08/21 04:21:28;;;;;;;2.08;1.30;;;;;;;;;;5068916;28;20025;-59
2021/08/21 04:23:54;;;;;;;1.92;1.60;;;;;;;;;;5067220;28;20024;-59
2021/08/21 04:26:20;;;;;;;1.55;1.45;;;;;;;;;;5068750;28;20097;-59
2021/08/21 04:28:47;;;;;;;1.95;1.63;;;;;;;;;;5068807;28;20026;-59
2021/08/21 04:31:13;;;;;;;2.30;1.85;;;;;;;;;;5068151;28;20059;-60
2021/08/21 04:33:39;;;;;;;1.75;1.65;;;;;;;;;;5055400;28;20044;-60
2021/08/21 04:36:06;;;;;;;2.55;1.75;;;;;;;;;;5049300;28;20065;-59
2021/08/21 04:38:32;;;;;;;1.88;1.58;;;;;;;;;;5049051;28;20021;-59
2021/08/21 04:40:59;;;;;;;2.00;1.63;;;;;;;;;;5049243;28;20024;-59
2021/08/21 04:43:26;;;;;;;2.08;1.70;;;;;;;;;;5048586;28;20607;-59
2021/08/21 04:45:52;;;;;;;1.60;1.50;;;;;;;;;;5047468;28;20033;-59
2021/08/21 04:48:18;;;;;;;2.03;1.58;;;;;;;;;;5048076;28;20167;-59
2021/08/21 04:50:44;;;;;;;1.55;1.42;;;;;;;;;;5048437;28;20115;-60
2021/08/21 04:53:11;;;;;;;2.85;1.50;;;;;;;;;;5047446;28;20033;-59
2021/08/21 04:55:38;;;;;;;1.50;1.40;;;;;;;;;;5048368;28;20029;-60
2021/08/21 04:58:04;;;;;;;2.47;1.70;;;;;;;;;;5048953;28;20054;-60
2021/08/21 05:00:30;;;;;;;2.03;1.73;;;;;;;;;;5048317;28;20045;-60
2021/08/21 05:02:58;;;;;;;2.15;1.85;;;;;;;;;;5048053;28;20526;-59
2021/08/21 05:05:28;;;;;;;1.65;1.55;;;;;;;;;;5047854;28;20044;-59
2021/08/21 05:07:54;;;;;;;2.00;1.67;;;;;;;;;;5048321;28;20045;-60
2021/08/21 05:10:21;;;;;;;1.50;1.40;;;;;;;;;;5047575;28;20033;-60
2021/08/21 05:12:47;;;;;;;1.40;1.30;;;;;;;;;;5051938;28;20036;-60
2021/08/21 05:15:13;;;;;;;2.15;1.80;;;;;;;;;;5066770;28;20025;-59
2021/08/21 05:17:40;;;;;;;2.08;1.70;;;;;;;;;;5067970;28;20536;-59
2021/08/21 05:20:14;;;;;;;1.92;1.73;;;;;;;;;;5067576;28;20108;-59
2021/08/21 05:25:13;;;;;;;2.20;1.73;;;;;;;;;;5048068;28;20037;-60
2021/08/21 05:27:40;;;;;;;2.33;1.83;;;;;;;;;;5046942;28;20024;-59
2021/08/21 05:30:07;;;;;;;2.35;1.73;;;;;;;;;;5047178;28;20444;-59
2021/08/21 05:32:33;;;;;;;2.13;1.70;;;;;;;;;;5054109;28;20552;-59
2021/08/21 05:34:59;;;;;;;1.70;1.60;;;;;;;;;;5067463;28;20040;-59
2021/08/21 05:37:26;;;;;;;2.00;1.50;;;;;;;;;;5067076;28;20028;-60
2021/08/21 05:39:52;;;;;;;2.33;1.80;;;;;;;;;;5059704;28;20049;-60
2021/08/21 05:42:19;;;;;;;2.10;1.85;;;;;;;;;;5052437;28;20498;-60
2021/08/21 05:44:45;;;;;;;2.10;1.73;;;;;;;;;;5057505;28;20403;-60
2021/08/21 05:47:11;;;;;;;2.97;2.05;;;;;;;;;;5068538;28;20021;-59
2021/08/21 05:49:37;;;;;;;1.70;1.60;;;;;;;;;;5054293;28;20024;-59
2021/08/21 05:52:03;;;;;;;1.50;1.40;;;;;;;;;;5049759;28;20036;-59
2021/08/21 05:54:29;;;;;;;2.03;1.70;;;;;;;;;;5062339;28;20033;-59
2021/08/21 05:56:57;;;;;;;2.25;1.77;;;;;;;;;;5057414;28;20021;-59
2021/08/21 05:59:23;;;;;;;3.30;1.70;;;;;;;;;;5062947;28;20840;-59
2021/08/21 06:01:49;;;;;;;1.88;1.67;;;;;;;;;;5048254;28;20024;-60
2021/08/21 06:04:15;;;;;;;1.92;1.73;;;;;;;;;;5055445;28;20686;-59
2021/08/21 06:06:41;;;;;;;2.45;1.77;;;;;;;;;;5081590;28;20063;-60
2021/08/21 06:09:07;;;;;;;1.70;1.48;;;;;;;;;;5085757;28;20024;-60
2021/08/21 06:11:33;;;;;;;2.17;1.60;;;;;;;;;;5048691;28;20021;-59
2021/08/21 06:13:59;;;;;;;1.90;1.75;;;;;;;;;;5048154;28;20535;-60
2021/08/21 06:16:26;;;;;;;2.40;1.63;;;;;;;;;;5049182;28;20706;-60
2021/08/21 06:18:52;;;;;;;2.17;1.65;;;;;;;;;;5068191;28;20107;-59
2021/08/21 06:21:18;;;;;;;3.22;1.80;;;;;;;;;;5066773;28;20028;-59
2021/08/21 06:23:44;;;;;;;2.80;1.88;;;;;;;;;;5068210;28;20028;-59
2021/08/21 06:26:10;;;;;;;1.63;1.52;;;;;;;;;;5062963;28;20042;-59
2021/08/21 06:28:36;;;;;;;2.13;1.55;;;;;;;;;;5052131;28;20107;-59
2021/08/21 06:31:02;;;;;;;1.40;1.30;;;;;;;;;;5080433;28;20466;-59
2021/08/21 06:33:30;;;;;;;1.50;1.27;;;;;;;;;;5059947;28;20037;-59
2021/08/21 06:35:56;;;;;;;1.52;1.42;;;;;;;;;;5061532;28;20028;-59
2021/08/21 06:38:22;;;;;;;1.77;1.52;;;;;;;;;;5045835;28;20051;-59
2021/08/21 06:40:50;;;;;;;1.67;1.45;;;;;;;;;;5052196;28;20484;-59
2021/08/21 06:43:16;;;;;;;1.70;1.40;;;;;;;;;;5054170;28;20113;-59
2021/08/21 06:45:42;;;;;;;1.60;1.50;;;;;;;;;;5046838;28;20029;-59
2021/08/21 06:48:08;;;;;;;2.92;1.45;;;;;;;;;;5056477;28;20543;-59
2021/08/21 06:50:36;;;;;;;1.40;1.30;;;;;;;;;;5067801;28;20498;-59
2021/08/21 06:53:02;;;;;;;1.40;1.30;;;;;;;;;;5067777;28;20491;-58
2021/08/21 06:55:28;;;;;;;2.20;1.75;;;;;;;;;;5052150;28;20044;-59
2021/08/21 06:57:54;;;;;;;1.98;1.45;;;;;;;;;;5057538;28;20029;-59
2021/08/21 07:00:21;;;;;;;1.55;1.35;;;;;;;;;;5056325;28;20044;-59
2021/08/21 07:02:47;;;;;;;1.30;1.20;;;;;;;;;;5055195;28;20062;-59
2021/08/21 07:05:13;;;;;;;1.85;1.60;;;;;;;;;;5053332;28;20411;-59
2021/08/21 07:07:39;;;;;;;1.73;1.42;;;;;;;;;;5065839;28;20097;-59
2021/08/21 07:10:05;;;;;;;1.50;1.40;;;;;;;;;;5051015;28;20499;-59
2021/08/21 07:12:31;;;;;;;1.35;1.25;;;;;;;;;;5050915;28;20091;-59
2021/08/21 07:14:57;;;;;;;1.30;1.10;;;;;;;;;;5048014;28;20040;-59
2021/08/21 07:17:23;;;;;;;2.05;1.27;;;;;;;;;;5049353;28;20066;-58
2021/08/21 07:19:49;;;;;;;1.38;1.27;;;;;;;;;;5046984;28;20392;-59
2021/08/21 07:22:16;;;;;;;1.33;1.10;;;;;;;;;;5050028;28;20044;-59
2021/08/21 07:24:42;;;;;;;1.30;1.20;;;;;;;;;;5047766;28;20032;-59
2021/08/21 07:27:08;;;;;;;1.83;1.40;;;;;;;;;;5052905;28;20108;-59
2021/08/21 07:29:34;;;;;;;1.20;1.10;;;;;;;;;;5055121;28;20107;-59
2021/08/21 07:32:00;;;;;;;1.20;1.10;;;;;;;;;;5048278;28;20846;-59
2021/08/21 07:34:27;;;;;;;1.98;1.67;;;;;;;;;;5047383;28;20044;-59
2021/08/21 07:36:53;;;;;;;1.70;1.60;;;;;;;;;;5050329;28;20036;-59
2021/08/21 07:39:19;;;;;;;2.42;1.40;;;;;;;;;;5047560;28;20033;-59
2021/08/21 07:41:45;;;;;;;1.42;1.33;;;;;;;;;;5062983;28;20141;-59
2021/08/21 07:44:11;;;;;;;1.55;1.40;;;;;;;;;;5064161;28;20119;-59
2021/08/21 07:46:38;;;;;;;1.30;1.20;;;;;;;;;;5051047;28;20032;-59
2021/08/21 07:49:04;;;;;;;1.48;1.38;;;;;;;;;;5055307;28;20041;-59
2021/08/21 07:51:30;;;;;;;1.23;1.08;;;;;;;;;;5051170;28;20033;-59
2021/08/21 07:53:56;;;;;;;1.17;1.08;;;;;;;;;;5051298;28;20403;-59
2021/08/21 07:56:22;;;;;;;1.58;1.33;;;;;;;;;;5048917;28;20025;-59
2021/08/21 07:58:48;;;;;;;1.42;1.23;;;;;;;;;;5048806;28;20029;-59
2021/08/21 08:01:16;;;;;;;1.10;1.00;;;;;;;;;;5066385;28;20356;-59
2021/08/21 08:03:42;;;;;;;1.20;1.10;;;;;;;;;;5067427;28;20024;-59
2021/08/21 08:06:08;;;;;;;1.10;1.00;;;;;;;;;;5067787;28;20398;-59
2021/08/21 08:08:34;;;;;;;1.13;1.02;;;;;;;;;;5073719;28;20081;-59
2021/08/21 08:11:00;;;;;;;1.27;0.88;;;;;;;;;;5074311;28;20024;-59
2021/08/21 08:13:26;;;;;;;1.10;1.00;;;;;;;;;;5070339;28;20112;-59
2021/08/21 08:15:53;;;;;;;0.70;0.70;;;;;;;;;;5066427;28;20111;-59
2021/08/21 08:18:20;;;;;;;1.10;1.00;;;;;;;;;;5068478;28;20072;-59
2021/08/21 08:20:47;;;;;;;1.13;1.02;;;;;;;;;;5068650;28;20040;-59
2021/08/21 08:23:14;;;;;;;0.93;0.90;;;;;;;;;;5065800;28;20056;-59
2021/08/21 08:25:40;;;;;;;1.13;1.00;;;;;;;;;;5067214;28;20024;-59
2021/08/21 08:28:06;;;;;;;1.02;0.93;;;;;;;;;;5066365;28;20033;-59
2021/08/21 08:30:33;;;;;;;1.40;1.10;;;;;;;;;;5066520;28;20021;-59
2021/08/21 08:33:00;;;;;;;1.00;0.90;;;;;;;;;;5077908;28;20025;-58
2021/08/21 08:35:26;;;;;;;1.13;1.05;;;;;;;;;;5065525;28;20460;-58
2021/08/21 08:37:52;;;;;;;1.10;1.00;;;;;;;;;;5065605;28;20044;-58
2021/08/21 08:40:22;;;;;;;1.05;0.98;;;;;;;;;;5064766;28;20032;-58
2021/08/21 08:42:48;;;;;;;1.00;0.90;;;;;;;;;;5065466;28;20053;-58
2021/08/21 08:45:14;;;;;;;1.45;0.90;;;;;;;;;;5068249;28;20506;-58
2021/08/21 08:47:42;;;;;;;0.95;0.90;;;;;;;;;;5065668;28;20103;-58
2021/08/21 08:50:09;;;;;;;0.80;0.80;;;;;;;;;;5065649;28;20391;-58
2021/08/21 08:52:36;;;;;;;0.82;0.80;;;;;;;;;;5065326;28;20103;-59
2021/08/21 08:55:05;;;;;;;0.70;0.70;;;;;;;;;;5072316;28;20085;-58
2021/08/21 08:57:35;;;;;;;0.60;0.60;;;;;;;;;;5066025;28;20106;-58
2021/08/21 09:00:02;;;;;;;1.13;0.80;;;;;;;;;;5066427;28;20071;-58
2021/08/21 09:02:32;;;;;;;0.85;0.75;;;;;;;;;;5067122;28;20028;-58
2021/08/21 09:05:02;;;;;;;0.80;0.80;;;;;;;;;;5080810;28;20504;-57
2021/08/21 09:07:49;;;;;;;0.98;0.70;;;;;;;;;;5090266;28;20378;-58
2021/08/21 09:10:24;;;;;;;1.20;1.10;;;;;;;;;;5069567;28;20028;-58
2021/08/21 09:13:02;;;;;;;0.82;0.82;;;;;;;;;;5067055;28;20024;-58
2021/08/21 09:15:29;;;;;;;1.30;1.15;;;;;;;;;;5068352;28;20483;-58
2021/08/21 09:18:05;;;;;;;1.95;1.35;;;;;;;;;;5069220;28;20521;-57
2021/08/21 09:20:33;;;;;;;1.50;1.40;;;;;;;;;;5069324;28;20020;-58
2021/08/21 09:23:17;;;;;;;1.40;1.30;;;;;;;;;;5068859;28;20048;-57
2021/08/21 09:25:43;;;;;;;1.83;1.58;;;;;;;;;;5069011;28;20023;-58
2021/08/21 09:28:16;;;;;;;1.40;1.30;;;;;;;;;;5068942;28;20028;-58
2021/08/21 09:30:44;;;;;;;1.70;1.30;;;;;;;;;;5068456;28;20060;-58
2021/08/21 09:33:10;;;;;;;1.10;1.00;;;;;;;;;;5068790;28;20025;-58
2021/08/21 09:35:36;;;;;;;1.63;1.50;;;;;;;;;;5068068;28;20550;-57
2021/08/21 09:38:03;;;;;;;1.63;1.30;;;;;;;;;;5074714;28;20410;-57
2021/08/21 09:40:34;;;;;;;1.92;1.65;;;;;;;;;;5073588;28;20068;-57
2021/08/21 09:43:01;;;;;;;1.60;1.50;;;;;;;;;;5068712;28;20029;-57
2021/08/21 09:45:28;;;;;;;1.52;1.40;;;;;;;;;;5067708;28;20035;-58
2021/08/21 09:48:01;;;;;;;1.60;1.30;;;;;;;;;;5068009;28;20029;-57
2021/08/21 09:50:31;;;;;;;1.85;1.60;;;;;;;;;;5067828;28;20063;-58
2021/08/21 09:53:01;;;;;;;1.65;1.50;;;;;;;;;;5067942;28;20040;-58
2021/08/21 09:55:29;;;;;;;1.52;1.40;;;;;;;;;;5085028;28;20024;-58
2021/08/21 09:57:59;;;;;;;1.70;1.58;;;;;;;;;;5089352;28;20063;-58
2021/08/21 10:00:26;;;;;;;1.63;1.52;;;;;;;;;;5077346;28;20093;-58
2021/08/21 10:02:52;;;;;;;1.90;1.80;;;;;;;;;;5069289;28;20037;-58
2021/08/21 10:05:19;;;;;;;1.40;1.30;;;;;;;;;;5068920;28;20036;-58
2021/08/21 10:07:47;;;;;;;1.85;1.63;;;;;;;;;;5069177;28;20043;-58
2021/08/21 10:10:16;;;;;;;1.58;1.42;;;;;;;;;;5068644;28;20040;-58
2021/08/21 10:12:45;;;;;;;1.60;1.50;;;;;;;;;;5084956;28;20028;-58
2021/08/21 10:15:13;;;;;;;1.98;1.75;;;;;;;;;;5075172;28;20104;-58
2021/08/21 10:17:39;;;;;;;1.63;1.52;;;;;;;;;;5069115;28;20020;-58
2021/08/21 10:20:06;;;;;;;1.63;1.52;;;;;;;;;;5086814;28;20035;-58
2021/08/21 10:22:32;;;;;;;1.25;1.15;;;;;;;;;;5078889;28;20514;-58
2021/08/21 10:25:05;;;;;;;1.67;1.58;;;;;;;;;;5070812;28;20032;-58
2021/08/21 10:27:34;;;;;;;1.58;1.30;;;;;;;;;;5070165;28;20434;-58
2021/08/21 10:30:06;;;;;;;1.33;1.17;;;;;;;;;;5081209;28;20036;-58
2021/08/21 10:32:36;;;;;;;1.65;1.50;;;;;;;;;;5069327;28;20028;-58
2021/08/21 10:35:03;;;;;;;1.67;1.40;;;;;;;;;;5074281;28;20046;-57
2021/08/21 10:37:40;;;;;;;1.70;1.60;;;;;;;;;;5085770;28;20032;-58
2021/08/21 10:40:25;;;;;;;2.90;2.10;;;;;;;;;;5073249;28;20054;-58
2021/08/21 10:42:53;;;;;;;2.55;2.05;;;;;;;;;;5068678;28;20062;-57
2021/08/21 10:45:39;;;;;;;2.50;2.22;;;;;;;;;;5078363;28;20509;-58
2021/08/21 10:48:11;;;;;;;3.70;3.00;;;;;;;;;;5066535;28;20488;-58
2021/08/21 10:50:41;;;;;;;4.95;3.85;;;;;;;;;;5069665;28;20107;-58
2021/08/21 10:53:07;;;;;;;10.98;7.57;;;;;;;;;;5067312;28;20032;-58
2021/08/21 10:55:33;;;;;;;7.80;5.70;;;;;;;;;;5067742;28;20103;-58
2021/08/21 10:58:01;;;;;;;6.10;4.38;;;;;;;;;;5081011;28;20036;-58
2021/08/21 11:00:39;;;;;;;5.15;3.75;;;;;;;;;;5071250;28;20452;-58
2021/08/21 11:03:06;;;;;;;7.95;5.07;;;;;;;;;;5072431;28;20483;-58
2021/08/21 11:05:51;;;;;;;7.13;5.30;;;;;;;;;;5072129;28;20052;-58
2021/08/21 11:08:17;;;;;;;8.07;5.60;;;;;;;;;;5083643;28;20028;-58
2021/08/21 11:10:44;;;;;;;6.90;4.78;;;;;;;;;;5078136;28;20059;-58
2021/08/21 11:13:12;;;;;;;4.97;4.13;;;;;;;;;;5094821;28;20016;-59
2021/08/21 11:15:38;;;;;;;5.40;4.53;;;;;;;;;;5070143;28;20044;-58
2021/08/21 11:18:19;;;;;;;5.45;4.72;;;;;;;;;;5069534;28;20075;-58
2021/08/21 11:20:45;;;;;;;4.93;3.47;;;;;;;;;;5075287;28;20077;-58
2021/08/21 11:23:14;;;;;;;3.35;3.05;;;;;;;;;;5079140;28;20682;-58
2021/08/21 11:25:42;;;;;;;4.38;3.40;;;;;;;;;;5069590;28;20075;-58
2021/08/21 11:28:10;;;;;;;3.45;2.70;;;;;;;;;;5070937;28;20032;-58
2021/08/21 11:30:37;;;;;;;3.13;2.60;;;;;;;;;;5074361;28;20032;-58
2021/08/21 11:33:09;;;;;;;2.30;2.10;;;;;;;;;;5070562;28;20394;-59
2021/08/21 11:35:37;;;;;;;2.20;2.00;;;;;;;;;;5084801;28;20059;-60
2021/08/21 11:38:10;;;;;;;2.50;2.10;;;;;;;;;;5087395;28;20024;-59
2021/08/21 11:40:39;;;;;;;2.83;2.43;;;;;;;;;;5078818;28;20502;-59
2021/08/21 11:43:06;;;;;;;2.85;2.38;;;;;;;;;;5072982;28;20032;-59
2021/08/21 11:45:32;;;;;;;2.92;2.35;;;;;;;;;;5074960;28;20065;-58
2021/08/21 11:47:59;;;;;;;3.55;2.55;;;;;;;;;;5078007;28;20105;-59
2021/08/21 11:50:28;;;;;;;2.63;2.28;;;;;;;;;;5077543;28;20032;-59
2021/08/21 11:52:55;;;;;;;2.53;2.33;;;;;;;;;;5084090;28;20031;-59
2021/08/21 11:55:22;;;;;;;3.65;2.60;;;;;;;;;;5066148;28;20028;-60
2021/08/21 11:57:48;;;;;;;4.03;3.30;;;;;;;;;;5075117;28;20024;-59
2021/08/21 12:00:21;;;;;;;3.70;2.80;;;;;;;;;;5072044;28;20044;-59
2021/08/21 12:02:48;;;;;;;3.33;2.38;;;;;;;;;;5070285;28;20028;-58
2021/08/21 12:05:14;;;;;;;2.10;1.90;;;;;;;;;;5079251;28;20484;-59
2021/08/21 12:07:40;;;;;;;2.22;2.03;;;;;;;;;;5083729;28;20060;-60
2021/08/21 12:10:06;;;;;;;1.95;1.75;;;;;;;;;;5068561;28;20044;-60
2021/08/21 12:12:35;;;;;;;2.33;2.13;;;;;;;;;;5081651;28;20016;-59
2021/08/21 12:15:01;;;;;;;1.92;1.77;;;;;;;;;;5076234;28;20028;-59
2021/08/21 12:17:28;;;;;;;1.90;1.80;;;;;;;;;;5084732;28;20030;-59
2021/08/21 12:19:54;;;;;;;2.08;1.90;;;;;;;;;;5085277;28;20028;-60
2021/08/21 12:22:21;;;;;;;2.38;2.00;;;;;;;;;;5084806;28;20052;-59
2021/08/21 12:24:54;;;;;;;2.40;2.20;;;;;;;;;;5070279;28;20039;-59
2021/08/21 12:27:24;;;;;;;1.90;1.70;;;;;;;;;;5064755;28;20043;-59
2021/08/21 12:30:05;;;;;;;1.85;1.67;;;;;;;;;;5069648;28;20093;-59
2021/08/21 12:32:31;;;;;;;2.33;2.13;;;;;;;;;;5085393;28;20032;-59
2021/08/21 12:35:09;;;;;;;2.10;1.90;;;;;;;;;;5084797;28;20059;-59
2021/08/21 12:37:35;;;;;;;1.92;1.70;;;;;;;;;;5078373;28;20031;-59
2021/08/21 12:40:12;;;;;;;1.58;1.48;;;;;;;;;;5069315;28;20032;-59
2021/08/21 12:42:39;;;;;;;1.60;1.50;;;;;;;;;;5068492;28;20409;-59
2021/08/21 12:45:18;;;;;;;1.70;1.60;;;;;;;;;;5077497;28;20039;-60
2021/08/21 12:47:44;;;;;;;1.55;1.42;;;;;;;;;;5076544;28;20384;-58
2021/08/21 12:50:10;;;;;;;1.42;1.33;;;;;;;;;;5099978;28;20461;-61
2021/08/21 12:52:38;;;;;;;1.85;1.67;;;;;;;;;;5098929;28;20027;-61
2021/08/21 12:55:08;;;;;;;1.60;1.50;;;;;;;;;;5096369;28;20498;-61
2021/08/21 12:57:35;;;;;;;2.03;1.83;;;;;;;;;;5088751;28;20027;-61
2021/08/21 13:00:04;;;;;;;1.83;1.70;;;;;;;;;;5089494;28;20036;-61
2021/08/21 13:02:39;;;;;;;1.70;1.60;;;;;;;;;;5088733;28;20038;-61
2021/08/21 13:05:06;;;;;;;2.30;1.60;;;;;;;;;;5078369;28;20040;-58
2021/08/21 13:07:45;;;;;;;1.83;1.65;;;;;;;;;;5078678;28;20111;-58
2021/08/21 13:10:18;;;;;;;2.22;1.83;;;;;;;;;;5085009;28;20024;-58
2021/08/21 13:12:45;;;;;;;1.50;1.40;;;;;;;;;;5089825;28;20398;-57
2021/08/21 13:15:12;;;;;;;1.20;1.10;;;;;;;;;;5088597;28;20108;-57
2021/08/21 13:17:38;;;;;;;1.23;1.13;;;;;;;;;;5089475;28;20038;-57
2021/08/21 13:20:06;;;;;;;1.20;1.10;;;;;;;;;;5090244;28;20051;-57
2021/08/21 13:22:32;;;;;;;1.50;1.40;;;;;;;;;;5083769;28;20099;-58
2021/08/21 13:24:58;;;;;;;1.33;1.23;;;;;;;;;;5069297;28;20379;-58
2021/08/21 13:27:25;;;;;;;1.00;1.00;;;;;;;;;;5068670;28;20483;-58
2021/08/21 13:29:51;;;;;;;1.15;1.05;;;;;;;;;;5074175;28;20020;-58
2021/08/21 13:32:18;;;;;;;1.00;1.00;;;;;;;;;;5089021;28;20032;-58
2021/08/21 13:34:44;;;;;;;1.00;1.00;;;;;;;;;;5089018;28;20020;-58
2021/08/21 13:37:10;;;;;;;1.42;1.33;;;;;;;;;;5082020;28;20021;-59
2021/08/21 13:39:36;;;;;;;1.20;1.10;;;;;;;;;;5068817;28;20380;-59
2021/08/21 13:42:03;;;;;;;1.17;1.08;;;;;;;;;;5071972;28;20028;-58
2021/08/21 13:44:29;;;;;;;1.20;1.10;;;;;;;;;;5088790;28;20048;-59
2021/08/21 13:46:55;;;;;;;1.17;1.10;;;;;;;;;;5089197;28;20651;-59
2021/08/21 13:49:21;;;;;;;1.20;1.10;;;;;;;;;;5088051;28;20107;-60
2021/08/21 13:51:47;;;;;;;1.70;1.30;;;;;;;;;;5076072;28;20024;-60
2021/08/21 13:54:13;;;;;;;2.30;1.77;;;;;;;;;;5068303;28;20048;-60
2021/08/21 13:56:39;;;;;;;2.05;1.85;;;;;;;;;;5068604;28;20425;-60
2021/08/21 13:59:06;;;;;;;2.22;1.73;;;;;;;;;;5068403;28;20127;-60
2021/08/21 14:01:32;;;;;;;1.30;1.20;;;;;;;;;;5067511;28;20044;-60
2021/08/21 14:03:58;;;;;;;1.42;1.33;;;;;;;;;;5068781;28;20101;-60
2021/08/21 14:06:24;;;;;;;2.08;1.77;;;;;;;;;;5067837;28;20037;-60
2021/08/21 14:08:50;;;;;;;2.00;1.80;;;;;;;;;;5068196;28;20032;-59
2021/08/21 14:11:17;;;;;;;1.60;1.50;;;;;;;;;;5068203;28;20029;-59
2021/08/21 14:13:43;;;;;;;1.77;1.60;;;;;;;;;;5068682;28;20020;-60
2021/08/21 14:16:09;;;;;;;2.10;1.80;;;;;;;;;;5068248;28;20021;-60
2021/08/21 14:18:35;;;;;;;2.20;2.00;;;;;;;;;;5068699;28;20598;-60
2021/08/21 14:21:01;;;;;;;3.05;1.80;;;;;;;;;;5069204;28;20060;-60
2021/08/21 14:23:27;;;;;;;2.10;1.73;;;;;;;;;;5067948;28;20502;-61
2021/08/21 14:25:53;;;;;;;1.70;1.60;;;;;;;;;;5068387;28;20024;-60
2021/08/21 14:28:19;;;;;;;1.75;1.63;;;;;;;;;;5067962;28;20376;-60
2021/08/21 14:30:47;;;;;;;1.65;1.55;;;;;;;;;;5067811;28;20064;-60
2021/08/21 14:33:13;;;;;;;1.60;1.50;;;;;;;;;;5067744;28;20040;-60
2021/08/21 14:35:40;;;;;;;1.52;1.42;;;;;;;;;;5067899;28;20566;-59
2021/08/21 14:38:06;;;;;;;1.45;1.35;;;;;;;;;;5067444;28;20073;-59
2021/08/21 14:40:32;;;;;;;1.35;1.25;;;;;;;;;;5068108;28;20032;-59
2021/08/21 14:42:58;;;;;;;1.67;1.58;;;;;;;;;;5067893;28;20075;-59
2021/08/21 14:45:25;;;;;;;1.52;1.42;;;;;;;;;;5065705;28;20441;-60